Time,TemperatureF,DewpointF,PressureIn,WindDirection,WindDirectionDegrees,WindSpeedMPH,WindSpeedGustMPH,Humidity,HourlyPrecipIn,Conditions,Clouds,dailyrainin,SoftwareType,DateUTC
2015-07-05 00:00:00,65.0,0.0,-100.00,East,90,3.0,4.0,-999,0.00,,---,0.00,VWS V14.01,2015-07-05 04:00:00,
2015-07-05 00:05:00,65.0,0.0,-100.00,East,90,0.0,4.0,-999,0.00,,---,0.00,VWS V14.01,2015-07-05 04:05:00,
2015-07-05 00:10:00,65.0,0.0,-100.00,East,90,2.0,4.0,-999,0.00,,---,0.00,VWS V14.01,2015-07-05 04:10:00,
2015-07-05 00:15:00,65.0,0.0,-100.00,ESE,112,4.0,6.0,-999,0.00,,---,0.00,VWS V14.01,2015-07-05 04:15:00,
2015-07-05 00:20:00,65.0,0.0,-100.00,ESE,112,3.0,6.0,-999,0.00,,---,0.00,VWS V14.01,2015-07-05 04:20:00,
2015-07-05 00:25:00,65.0,0.0,-100.00,ESE,112,2.0,5.0,-999,0.00,,---,0.00,VWS V14.01,2015-07-05 04:25:00,
2015-07-05 00:30:00,65.0,0.0,-100.00,East,90,4.0,5.0,-999,0.00,,---,0.00,VWS V14.01,2015-07-05 04:30:00,
2015-07-05 00:35:00,65.0,0.0,-100.00,ESE,112,3.0,4.0,-999,0.00,,---,0.00,VWS V14.01,2015-07-05 04:35:00,
2015-07-05 00:40:00,64.0,0.0,-100.00,ESE,112,4.0,6.0,-999,0.00,,---,0.00,VWS V14.01,2015-07-05 04:40:00,
2015-07-05 00:45:00,64.0,0.0,-100.00,East,90,4.0,5.0,-999,0.00,,---,0.00,VWS V14.01,2015-07-05 04:45:00,
2015-07-05 00:50:00,64.0,0.0,-100.00,ESE,112,3.0,4.0,-999,0.00,,---,0.00,VWS V14.01,2015-07-05 04:50:00,
2015-07-05 00:55:00,64.0,0.0,-100.00,ESE,112,0.0,4.0,-999,0.00,,---,0.00,VWS V14.01,2015-07-05 04:55:00,
2015-07-05 01:00:00,64.0,0.0,-100.00,ESE,112,1.0,4.0,-999,0.00,,---,0.00,VWS V14.01,2015-07-05 05:00:00,
2015-07-05 01:05:00,64.0,0.0,-100.00,ESE,112,0.0,4.0,-999,0.00,,---,0.00,VWS V14.01,2015-07-05 05:05:00,
2015-07-05 01:10:00,64.0,0.0,-100.00,ESE,112,1.0,5.0,-999,0.00,,---,0.00,VWS V14.01,2015-07-05 05:10:00,
2015-07-05 01:15:00,64.0,0.0,-100.00,ESE,112,2.0,4.0,-999,0.00,,---,0.00,VWS V14.01,2015-07-05 05:15:00,
2015-07-05 01:20:00,64.0,0.0,-100.00,ESE,112,3.0,5.0,-999,0.00,,---,0.00,VWS V14.01,2015-07-05 05:20:00,
2015-07-05 01:25:00,64.0,0.0,-100.00,East,90,0.0,5.0,-999,0.00,,---,0.00,VWS V14.01,2015-07-05 05:25:00,
2015-07-05 01:30:00,63.0,0.0,-100.00,East,90,0.0,3.0,-999,0.00,,---,0.00,VWS V14.01,2015-07-05 05:30:00,
2015-07-05 01:35:00,63.0,0.0,-100.00,East,90,1.0,3.0,-999,0.00,,---,0.00,VWS V14.01,2015-07-05 05:35:00,
2015-07-05 01:40:00,63.0,0.0,-100.00,East,90,0.0,3.0,-999,0.00,,---,0.00,VWS V14.01,2015-07-05 05:40:00,
2015-07-05 01:45:00,63.0,0.0,-100.00,East,90,0.0,1.0,-999,0.00,,---,0.00,VWS V14.01,2015-07-05 05:45:00,
2015-07-05 01:50:00,62.0,0.0,-100.00,East,90,0.0,1.0,-999,0.00,,---,0.00,VWS V14.01,2015-07-05 05:50:00,
2015-07-05 01:55:00,62.0,0.0,-100.00,East,90,0.0,0.0,-999,0.00,,---,0.00,VWS V14.01,2015-07-05 05:55:00,
2015-07-05 02:00:00,62.0,0.0,-100.00,East,90,0.0,0.0,-999,0.00,,---,0.00,VWS V14.01,2015-07-05 06:00:00,
2015-07-05 02:05:00,61.0,0.0,-100.00,East,90,0.0,0.0,-999,0.00,,---,0.00,VWS V14.01,2015-07-05 06:05:00,
2015-07-05 02:10:00,61.0,0.0,-100.00,East,90,0.0,0.0,-999,0.00,,---,0.00,VWS V14.01,2015-07-05 06:10:00,
2015-07-05 02:15:00,61.0,0.0,-100.00,East,90,0.0,0.0,-999,0.00,,---,0.00,VWS V14.01,2015-07-05 06:15:00,
2015-07-05 02:20:00,60.0,0.0,-100.00,East,90,0.0,0.0,-999,0.00,,---,0.00,VWS V14.01,2015-07-05 06:20:00,
2015-07-05 02:25:00,60.0,0.0,-100.00,East,90,0.0,0.0,-999,0.00,,---,0.00,VWS V14.01,2015-07-05 06:25:00,
2015-07-05 02:30:00,59.0,0.0,-100.00,East,90,0.0,0.0,-999,0.00,,---,0.00,VWS V14.01,2015-07-05 06:30:00,
2015-07-05 02:35:00,59.0,0.0,-100.00,East,90,0.0,0.0,-999,0.00,,---,0.00,VWS V14.01,2015-07-05 06:35:00,
2015-07-05 02:40:00,59.0,0.0,-100.00,East,90,0.0,0.0,-999,0.00,,---,0.00,VWS V14.01,2015-07-05 06:40:00,
2015-07-05 02:45:00,58.0,0.0,-100.00,East,90,0.0,0.0,-999,0.00,,---,0.00,VWS V14.01,2015-07-05 06:45:00,
2015-07-05 02:50:00,58.0,0.0,-100.00,East,90,0.0,0.0,-999,0.00,,---,0.00,VWS V14.01,2015-07-05 06:50:00,
2015-07-05 02:55:00,58.0,0.0,-100.00,East,90,0.0,0.0,-999,0.00,,---,0.00,VWS V14.01,2015-07-05 06:55:00,
2015-07-05 03:00:00,58.0,0.0,-100.00,East,90,0.0,0.0,-999,0.00,,---,0.00,VWS V14.01,2015-07-05 07:00:00,
2015-07-05 03:05:00,58.0,0.0,-100.00,East,90,0.0,0.0,-999,0.00,,---,0.00,VWS V14.01,2015-07-05 07:05:00,
2015-07-05 03:10:00,58.0,0.0,-100.00,East,90,0.0,0.0,-999,0.00,,---,0.00,VWS V14.01,2015-07-05 07:10:00,
2015-07-05 03:15:00,58.0,0.0,-100.00,East,90,0.0,0.0,-999,0.00,,---,0.00,VWS V14.01,2015-07-05 07:15:00,
2015-07-05 03:20:00,58.0,0.0,-100.00,East,90,0.0,0.0,-999,0.00,,---,0.00,VWS V14.01,2015-07-05 07:20:00,
2015-07-05 03:25:00,57.0,0.0,-100.00,East,90,0.0,0.0,-999,0.00,,---,0.00,VWS V14.01,2015-07-05 07:25:00,
2015-07-05 03:30:00,57.0,0.0,-100.00,East,90,0.0,0.0,-999,0.00,,---,0.00,VWS V14.01,2015-07-05 07:30:00,
2015-07-05 03:35:00,57.0,0.0,-100.00,East,90,0.0,0.0,-999,0.00,,---,0.00,VWS V14.01,2015-07-05 07:35:00,
2015-07-05 03:40:00,57.0,0.0,-100.00,East,90,0.0,0.0,-999,0.00,,---,0.00,VWS V14.01,2015-07-05 07:40:00,
2015-07-05 03:45:00,57.0,0.0,-100.00,East,90,0.0,0.0,-999,0.00,,---,0.00,VWS V14.01,2015-07-05 07:45:00,
2015-07-05 03:50:00,57.0,0.0,-100.00,East,90,0.0,0.0,-999,0.00,,---,0.00,VWS V14.01,2015-07-05 07:50:00,
2015-07-05 03:55:00,57.0,0.0,-100.00,East,90,0.0,0.0,-999,0.00,,---,0.00,VWS V14.01,2015-07-05 07:55:00,
2015-07-05 04:00:00,57.0,0.0,-100.00,East,90,0.0,1.0,-999,0.00,,---,0.00,VWS V14.01,2015-07-05 08:00:00,
2015-07-05 04:02:00,58.0,0.0,-100.00,ESE,112,1.0,3.0,-999,0.00,,---,0.00,VWS V14.01,2015-07-05 08:02:00,
2015-07-05 04:03:00,58.0,0.0,-100.00,ESE,112,0.0,3.0,-999,0.00,,---,0.00,VWS V14.01,2015-07-05 08:03:00,
2015-07-05 04:05:00,58.0,-30.0,-100.00,ESE,112,2.0,4.0,-999,0.00,,---,0.00,VWS V14.01,2015-07-05 08:05:00,
2015-07-05 04:07:00,58.0,0.0,-100.00,ESE,112,0.0,0.0,-999,0.00,,---,0.00,VWS V14.01,2015-07-05 08:07:00,
2015-07-05 04:10:00,59.0,-41.6,-100.00,ESE,112,4.0,5.0,-999,0.00,,---,0.00,VWS V14.01,2015-07-05 08:10:00,
2015-07-05 04:12:00,58.0,0.0,-100.00,ESE,112,0.0,0.0,-999,0.00,,---,0.00,VWS V14.01,2015-07-05 08:12:00,
2015-07-05 04:13:00,58.0,0.0,-100.00,ESE,112,0.0,0.0,-999,0.00,,---,0.00,VWS V14.01,2015-07-05 08:13:00,
2015-07-05 04:15:00,59.0,0.0,-100.00,ESE,112,1.0,4.0,-999,0.00,,---,0.00,VWS V14.01,2015-07-05 08:15:00,
2015-07-05 04:18:00,58.0,0.0,-100.00,ESE,112,0.0,3.0,-999,0.00,,---,0.00,VWS V14.01,2015-07-05 08:18:00,
2015-07-05 04:20:00,59.0,0.0,-100.00,ESE,112,3.0,5.0,-999,0.00,,---,0.00,VWS V14.01,2015-07-05 08:20:00,
2015-07-05 04:21:00,58.0,0.0,-100.00,ESE,112,1.0,3.0,-999,0.00,,---,0.00,VWS V14.01,2015-07-05 08:21:00,
2015-07-05 04:22:00,58.0,0.0,-100.00,ESE,112,2.0,3.0,-999,0.00,,---,0.00,VWS V14.01,2015-07-05 08:22:00,
2015-07-05 04:25:00,59.0,0.0,-100.00,ESE,112,3.0,4.0,-999,0.00,,---,0.00,VWS V14.01,2015-07-05 08:25:00,
2015-07-05 04:30:00,59.0,0.0,-100.00,ESE,112,0.0,4.0,-999,0.00,,---,0.00,VWS V14.01,2015-07-05 08:30:00,
2015-07-05 04:32:00,58.0,0.0,-100.00,ESE,112,0.0,0.0,-999,0.00,,---,0.00,VWS V14.01,2015-07-05 08:32:00,
2015-07-05 04:35:00,59.0,0.0,-100.00,ESE,112,1.0,3.0,-999,0.00,,---,0.00,VWS V14.01,2015-07-05 08:35:00,
2015-07-05 04:38:00,57.0,0.0,-100.00,ESE,112,0.0,0.0,-999,0.00,,---,0.00,VWS V14.01,2015-07-05 08:38:00,
2015-07-05 04:40:00,59.0,0.0,-100.00,ESE,112,0.0,2.0,-999,0.00,,---,0.00,VWS V14.01,2015-07-05 08:40:00,
2015-07-05 04:45:00,59.0,0.0,-100.00,ESE,112,0.0,0.0,-999,0.00,,---,0.00,VWS V14.01,2015-07-05 08:45:00,
2015-07-05 04:50:00,58.0,0.0,-100.00,ESE,112,0.0,0.0,-999,0.00,,---,0.00,VWS V14.01,2015-07-05 08:50:00,
2015-07-05 04:55:00,58.0,0.0,-100.00,ESE,112,1.0,3.0,-999,0.00,,---,0.00,VWS V14.01,2015-07-05 08:55:00,
2015-07-05 05:00:00,58.0,0.0,-100.00,ESE,112,0.0,3.0,-999,0.00,,---,0.00,VWS V14.01,2015-07-05 09:00:00,
2015-07-05 05:05:00,58.0,0.0,-100.00,ESE,112,0.0,0.0,-999,0.00,,---,0.00,VWS V14.01,2015-07-05 09:05:00,
2015-07-05 05:07:00,56.0,0.0,-100.00,ESE,112,0.0,0.0,-999,0.00,,---,0.00,VWS V14.01,2015-07-05 09:07:00,
2015-07-05 05:09:00,56.0,0.0,-100.00,ESE,112,0.0,0.0,-999,0.00,,---,0.00,VWS V14.01,2015-07-05 09:09:00,
2015-07-05 05:10:00,58.0,0.0,-100.00,ESE,112,0.0,3.0,-999,0.00,,---,0.00,VWS V14.01,2015-07-05 09:10:00,
2015-07-05 05:15:00,58.0,0.0,-100.00,ESE,112,2.0,2.0,-999,0.00,,---,0.00,VWS V14.01,2015-07-05 09:15:00,
2015-07-05 05:20:00,58.0,0.0,-100.00,ESE,112,0.0,0.0,-999,0.00,,---,0.00,VWS V14.01,2015-07-05 09:20:00,
2015-07-05 05:21:00,56.0,-43.5,-100.00,ESE,112,0.0,0.0,-999,0.00,,---,0.00,VWS V14.01,2015-07-05 09:21:00,
2015-07-05 05:22:00,56.0,0.0,-100.00,ESE,112,0.0,0.0,-999,0.00,,---,0.00,VWS V14.01,2015-07-05 09:22:00,
2015-07-05 05:24:00,56.0,-43.5,-100.00,ESE,112,0.0,0.0,-999,0.00,,---,0.00,VWS V14.01,2015-07-05 09:24:00,
2015-07-05 05:25:00,56.0,-43.5,-100.00,ESE,112,0.0,0.0,-999,0.00,,---,0.00,VWS V14.01,2015-07-05 09:25:00,
2015-07-05 05:26:00,58.0,0.0,-100.00,ESE,112,0.0,0.0,-999,0.00,,---,0.00,VWS V14.01,2015-07-05 09:26:00,
2015-07-05 05:27:00,56.0,-43.5,-100.00,ESE,112,1.0,3.0,-999,0.00,,---,0.00,VWS V14.01,2015-07-05 09:27:00,
2015-07-05 05:28:00,56.0,-43.5,-100.00,ESE,112,0.0,3.0,-999,0.00,,---,0.00,VWS V14.01,2015-07-05 09:28:00,
2015-07-05 05:29:00,56.0,-43.5,-100.00,ESE,112,0.0,3.0,-999,0.00,,---,0.00,VWS V14.01,2015-07-05 09:29:00,
2015-07-05 05:31:00,57.0,0.0,-100.00,ESE,112,0.0,0.0,-999,0.00,,---,0.00,VWS V14.01,2015-07-05 09:31:00,
2015-07-05 05:32:00,57.0,-42.8,-100.00,ESE,112,0.0,0.0,-999,0.00,,---,0.00,VWS V14.01,2015-07-05 09:32:00,
2015-07-05 05:34:00,57.0,-42.8,-100.00,ESE,112,0.0,0.0,-999,0.00,,---,0.00,VWS V14.01,2015-07-05 09:34:00,
2015-07-05 05:36:00,57.0,0.0,-100.00,ESE,112,0.0,0.0,-999,0.00,,---,0.00,VWS V14.01,2015-07-05 09:36:00,
2015-07-05 05:41:00,57.0,0.0,-100.00,ESE,112,0.0,0.0,-999,0.00,,---,0.00,VWS V14.01,2015-07-05 09:41:00,
2015-07-05 05:46:00,57.0,0.0,-100.00,ESE,112,0.0,0.0,-999,0.00,,---,0.00,VWS V14.01,2015-07-05 09:46:00,
2015-07-05 05:51:00,56.0,0.0,-100.00,ESE,112,0.0,0.0,-999,0.00,,---,0.00,VWS V14.01,2015-07-05 09:51:00,
2015-07-05 05:56:00,56.0,0.0,-100.00,ESE,112,0.0,0.0,-999,0.00,,---,0.00,VWS V14.01,2015-07-05 09:56:00,
2015-07-05 06:01:00,56.0,0.0,-100.00,ESE,112,0.0,0.0,-999,0.00,,---,0.00,VWS V14.01,2015-07-05 10:01:00,
2015-07-05 06:06:00,56.0,0.0,-100.00,ESE,112,0.0,0.0,-999,0.00,,---,0.00,VWS V14.01,2015-07-05 10:06:00,
2015-07-05 06:10:00,57.0,-30.7,-100.00,ESE,112,0.0,0.0,-999,0.00,,---,0.00,VWS V14.01,2015-07-05 10:10:00,
2015-07-05 06:11:00,56.0,0.0,-100.00,ESE,112,0.0,0.0,-999,0.00,,---,0.00,VWS V14.01,2015-07-05 10:11:00,
2015-07-05 06:14:00,57.0,-30.7,-100.00,ESE,112,0.0,0.0,-999,0.00,,---,0.00,VWS V14.01,2015-07-05 10:14:00,
2015-07-05 06:16:00,56.0,-43.5,-100.00,ESE,112,0.0,0.0,-999,0.00,,---,0.00,VWS V14.01,2015-07-05 10:16:00,
2015-07-05 06:17:00,57.0,-30.7,-100.00,ESE,112,0.0,0.0,-999,0.00,,---,0.00,VWS V14.01,2015-07-05 10:17:00,
2015-07-05 06:18:00,57.0,-30.7,-100.00,ESE,112,0.0,0.0,-999,0.00,,---,0.00,VWS V14.01,2015-07-05 10:18:00,
2015-07-05 06:19:00,57.0,-30.7,-100.00,ESE,112,0.0,0.0,-999,0.00,,---,0.00,VWS V14.01,2015-07-05 10:19:00,
2015-07-05 06:20:00,57.0,-30.7,-100.00,ESE,112,0.0,0.0,-999,0.00,,---,0.00,VWS V14.01,2015-07-05 10:20:00,
2015-07-05 06:22:00,56.0,-43.5,-100.00,ESE,112,0.0,3.0,-999,0.00,,---,0.00,VWS V14.01,2015-07-05 10:22:00,
2015-07-05 06:24:00,58.0,-30.0,-100.00,ESE,112,0.0,0.0,-999,0.00,,---,0.00,VWS V14.01,2015-07-05 10:24:00,
2015-07-05 06:26:00,58.0,-30.0,-100.00,ESE,112,0.0,0.0,-999,0.00,,---,0.00,VWS V14.01,2015-07-05 10:26:00,
2015-07-05 06:27:00,57.0,-42.8,-100.00,ESE,112,0.0,0.0,-999,0.00,,---,0.00,VWS V14.01,2015-07-05 10:27:00,
2015-07-05 06:28:00,58.0,-30.0,-100.00,ESE,112,0.0,0.0,-999,0.00,,---,0.00,VWS V14.01,2015-07-05 10:28:00,
2015-07-05 06:29:00,58.0,-30.0,-100.00,ESE,112,0.0,0.0,-999,0.00,,---,0.00,VWS V14.01,2015-07-05 10:29:00,
2015-07-05 06:32:00,56.0,-43.5,-100.00,ESE,112,0.0,0.0,-999,0.00,,---,0.00,VWS V14.01,2015-07-05 10:32:00,
2015-07-05 06:33:00,59.0,-29.4,-100.00,ESE,112,0.0,0.0,-999,0.00,,---,0.00,VWS V14.01,2015-07-05 10:33:00,
2015-07-05 06:34:00,59.0,-29.4,-100.00,ESE,112,0.0,0.0,-999,0.00,,---,0.00,VWS V14.01,2015-07-05 10:34:00,
2015-07-05 06:35:00,59.0,-29.4,-100.00,ESE,112,0.0,0.0,-999,0.00,,---,0.00,VWS V14.01,2015-07-05 10:35:00,
2015-07-05 06:37:00,56.0,-43.5,-100.00,ESE,112,0.0,0.0,-999,0.00,,---,0.00,VWS V14.01,2015-07-05 10:37:00,
2015-07-05 06:38:00,59.0,-29.4,-100.00,ESE,112,0.0,0.0,-999,0.00,,---,0.00,VWS V14.01,2015-07-05 10:38:00,
2015-07-05 06:42:00,56.0,-43.5,-100.00,ESE,112,0.0,0.0,-999,0.00,,---,0.00,VWS V14.01,2015-07-05 10:42:00,
2015-07-05 06:47:00,56.0,-43.5,-100.00,ESE,112,0.0,0.0,-999,0.00,,---,0.00,VWS V14.01,2015-07-05 10:47:00,
2015-07-05 06:52:00,56.0,-43.5,-100.00,ESE,112,0.0,0.0,-999,0.00,,---,0.00,VWS V14.01,2015-07-05 10:52:00,
2015-07-05 06:57:00,56.0,-43.5,-100.00,ESE,112,0.0,0.0,-999,0.00,,---,0.00,VWS V14.01,2015-07-05 10:57:00,
2015-07-05 07:02:00,56.0,-43.5,-100.00,ESE,112,0.0,0.0,-999,0.00,,---,0.00,VWS V14.01,2015-07-05 11:02:00,
2015-07-05 07:07:00,57.0,-30.7,-100.00,ESE,112,0.0,0.0,-999,0.00,,---,0.00,VWS V14.01,2015-07-05 11:07:00,
2015-07-05 07:13:00,57.0,-30.7,-100.00,ESE,112,0.0,0.0,-999,0.00,,---,0.00,VWS V14.01,2015-07-05 11:13:00,
2015-07-05 07:18:00,57.0,-42.8,-100.00,ESE,112,0.0,0.0,-999,0.00,,---,0.00,VWS V14.01,2015-07-05 11:18:00,
2015-07-05 07:23:00,58.0,-30.0,-100.00,ESE,112,0.0,0.0,-999,0.00,,---,0.00,VWS V14.01,2015-07-05 11:23:00,
2015-07-05 07:28:00,58.0,-42.2,-100.00,ESE,112,0.0,0.0,-999,0.00,,---,0.00,VWS V14.01,2015-07-05 11:28:00,
2015-07-05 07:33:00,59.0,-29.4,-100.00,ESE,112,0.0,0.0,-999,0.00,,---,0.00,VWS V14.01,2015-07-05 11:33:00,
2015-07-05 07:38:00,59.0,-41.6,-100.00,ESE,112,0.0,0.0,-999,0.00,,---,0.00,VWS V14.01,2015-07-05 11:38:00,
2015-07-05 07:43:00,59.0,-29.4,-100.00,ESE,112,0.0,0.0,-999,0.00,,---,0.00,VWS V14.01,2015-07-05 11:43:00,
2015-07-05 07:48:00,60.0,-41.0,-100.00,ESE,112,0.0,0.0,-999,0.00,,---,0.00,VWS V14.01,2015-07-05 11:48:00,
2015-07-05 07:53:00,60.0,-28.7,-100.00,ESE,112,0.0,0.0,-999,0.00,,---,0.00,VWS V14.01,2015-07-05 11:53:00,
2015-07-05 07:58:00,60.0,-28.7,-100.00,ESE,112,0.0,2.0,-999,0.00,,---,0.00,VWS V14.01,2015-07-05 11:58:00,
2015-07-05 08:03:00,60.0,-28.7,-100.00,ESE,112,0.0,4.0,-999,0.00,,---,0.00,VWS V14.01,2015-07-05 12:03:00,
2015-07-05 08:06:00,66.0,0.0,-100.00,East,90,0.0,0.0,-999,0.00,,---,0.00,VWS V14.01,2015-07-05 12:06:00,
2015-07-05 08:09:00,61.0,-28.1,-100.00,ESE,112,0.0,2.0,-999,0.00,,---,0.00,VWS V14.01,2015-07-05 12:09:00,
2015-07-05 08:11:00,65.0,0.0,-100.00,ESE,112,3.0,3.0,-999,0.00,,---,0.00,VWS V14.01,2015-07-05 12:11:00,
2015-07-05 08:12:00,65.0,0.0,-100.00,ESE,112,0.0,4.0,-999,0.00,,---,0.00,VWS V14.01,2015-07-05 12:12:00,
2015-07-05 08:14:00,61.0,-40.4,-100.00,ESE,112,1.0,1.0,-999,0.00,,---,0.00,VWS V14.01,2015-07-05 12:14:00,
2015-07-05 08:15:00,65.0,0.0,-100.00,ESE,112,4.0,5.0,-999,0.00,,---,0.00,VWS V14.01,2015-07-05 12:15:00,
2015-07-05 08:16:00,65.0,0.0,-100.00,SE,135,0.0,5.0,-999,0.00,,---,0.00,VWS V14.01,2015-07-05 12:16:00,
2015-07-05 08:17:00,66.0,0.0,-100.00,SE,135,0.0,5.0,-999,0.00,,---,0.00,VWS V14.01,2015-07-05 12:17:00,
2015-07-05 08:19:00,62.0,-39.8,-100.00,ESE,112,0.0,3.0,-999,0.00,,---,0.00,VWS V14.01,2015-07-05 12:19:00,
2015-07-05 08:22:00,66.0,0.0,-100.00,East,90,0.0,2.0,-999,0.00,,---,0.00,VWS V14.01,2015-07-05 12:22:00,
2015-07-05 08:23:00,66.0,0.0,-100.00,East,90,0.0,2.0,-999,0.00,,---,0.00,VWS V14.01,2015-07-05 12:23:00,
2015-07-05 08:24:00,62.0,-39.8,-100.00,ESE,112,0.0,3.0,-999,0.00,,---,0.00,VWS V14.01,2015-07-05 12:24:00,
2015-07-05 08:27:00,67.0,0.0,-100.00,ESE,112,0.0,3.0,-999,0.00,,---,0.00,VWS V14.01,2015-07-05 12:27:00,
2015-07-05 08:28:00,67.0,0.0,-100.00,ESE,112,4.0,4.0,-999,0.00,,---,0.00,VWS V14.01,2015-07-05 12:28:00,
2015-07-05 08:29:00,63.0,-39.2,-100.00,ESE,112,0.0,3.0,-999,0.00,,---,0.00,VWS V14.01,2015-07-05 12:29:00,
2015-07-05 08:30:00,67.0,0.0,-100.00,ESE,112,0.0,0.0,-999,0.00,,---,0.00,VWS V14.01,2015-07-05 12:30:00,
2015-07-05 08:31:00,67.0,0.0,-100.00,ESE,112,0.0,0.0,-999,0.00,,---,0.00,VWS V14.01,2015-07-05 12:31:00,
2015-07-05 08:32:00,67.0,0.0,-100.00,ESE,112,0.0,1.0,-999,0.00,,---,0.00,VWS V14.01,2015-07-05 12:32:00,
2015-07-05 08:34:00,63.0,0.0,-100.00,ESE,112,0.0,0.0,-999,0.00,,---,0.00,VWS V14.01,2015-07-05 12:34:00,
2015-07-05 08:36:00,67.0,0.0,-100.00,ESE,112,0.0,0.0,-999,0.00,,---,0.00,VWS V14.01,2015-07-05 12:36:00,
2015-07-05 08:37:00,67.0,0.0,-100.00,ESE,112,0.0,0.0,-999,0.00,,---,0.00,VWS V14.01,2015-07-05 12:37:00,
2015-07-05 08:39:00,64.0,0.0,-100.00,ESE,112,0.0,0.0,-999,0.00,,---,0.00,VWS V14.01,2015-07-05 12:39:00,
2015-07-05 08:44:00,64.0,0.0,-100.00,ENE,67,0.0,0.0,-999,0.00,,---,0.00,VWS V14.01,2015-07-05 12:44:00,
2015-07-05 08:49:00,65.0,0.0,-100.00,ENE,67,0.0,0.0,-999,0.00,,---,0.00,VWS V14.01,2015-07-05 12:49:00,
2015-07-05 08:54:00,65.0,0.0,-100.00,East,90,0.0,1.0,-999,0.00,,---,0.00,VWS V14.01,2015-07-05 12:54:00,
2015-07-05 08:59:00,65.0,0.0,-100.00,East,90,0.0,2.0,-999,0.00,,---,0.00,VWS V14.01,2015-07-05 12:59:00,
2015-07-05 09:04:00,66.0,0.0,-100.00,East,90,0.0,0.0,-999,0.00,,---,0.00,VWS V14.01,2015-07-05 13:04:00,
2015-07-05 09:09:00,65.0,0.0,-100.00,ESE,112,1.0,4.0,-999,0.00,,---,0.00,VWS V14.01,2015-07-05 13:09:00,
2015-07-05 09:14:00,66.0,0.0,-100.00,SE,135,0.0,5.0,-999,0.00,,---,0.00,VWS V14.01,2015-07-05 13:14:00,
2015-07-05 09:20:00,66.0,0.0,-100.00,East,90,0.0,2.0,-999,0.00,,---,0.00,VWS V14.01,2015-07-05 13:20:00,
2015-07-05 09:25:00,67.0,0.0,-100.00,ESE,112,0.0,4.0,-999,0.00,,---,0.00,VWS V14.01,2015-07-05 13:25:00,
2015-07-05 09:30:00,67.0,0.0,-100.00,ESE,112,0.0,3.0,-999,0.00,,---,0.00,VWS V14.01,2015-07-05 13:30:00,
2015-07-05 09:35:00,67.0,0.0,-100.00,East,90,0.0,3.0,-999,0.00,,---,0.00,VWS V14.01,2015-07-05 13:35:00,
2015-07-05 09:40:00,67.0,0.0,-100.00,NE,45,0.0,2.0,-999,0.00,,---,0.00,VWS V14.01,2015-07-05 13:40:00,
2015-07-05 09:45:00,68.0,0.0,-100.00,ESE,112,0.0,3.0,-999,0.00,,---,0.00,VWS V14.01,2015-07-05 13:45:00,
2015-07-05 09:50:00,68.0,0.0,-100.00,ESE,112,0.0,3.0,-999,0.00,,---,0.00,VWS V14.01,2015-07-05 13:50:00,
2015-07-05 09:55:00,68.0,0.0,-100.00,ESE,112,1.0,1.0,-999,0.00,,---,0.00,VWS V14.01,2015-07-05 13:55:00,
2015-07-05 10:00:00,69.0,0.0,-100.00,ESE,112,1.0,3.0,-999,0.00,,---,0.00,VWS V14.01,2015-07-05 14:00:00,
2015-07-05 10:05:00,69.0,0.0,-100.00,ESE,112,3.0,5.0,-999,0.00,,---,0.00,VWS V14.01,2015-07-05 14:05:00,
2015-07-05 10:10:00,70.0,0.0,-100.00,ESE,112,0.0,4.0,-999,0.00,,---,0.00,VWS V14.01,2015-07-05 14:10:00,
2015-07-05 10:15:00,70.0,0.0,-100.00,East,90,0.0,4.0,-999,0.00,,---,0.00,VWS V14.01,2015-07-05 14:15:00,
2015-07-05 10:20:00,71.0,0.0,-100.00,ESE,112,3.0,5.0,-999,0.00,,---,0.00,VWS V14.01,2015-07-05 14:20:00,
2015-07-05 10:25:00,71.0,0.0,-100.00,ESE,112,1.0,6.0,-999,0.00,,---,0.00,VWS V14.01,2015-07-05 14:25:00,
2015-07-05 10:30:00,71.0,0.0,-100.00,South,180,0.0,2.0,-999,0.00,,---,0.00,VWS V14.01,2015-07-05 14:30:00,
2015-07-05 10:35:00,72.0,1.3,-100.00,ESE,112,0.0,1.0,-999,0.00,,---,0.00,VWS V14.01,2015-07-05 14:35:00,
2015-07-05 10:40:00,72.0,7.5,-100.00,East,90,0.0,1.0,-999,0.00,,---,0.00,VWS V14.01,2015-07-05 14:40:00,
2015-07-05 10:45:00,73.0,35.1,-100.00,SE,135,0.0,2.0,-999,0.00,,---,0.00,VWS V14.01,2015-07-05 14:45:00,
2015-07-05 10:50:00,74.0,54.2,-100.00,East,90,4.0,8.0,-999,0.00,,---,0.00,VWS V14.01,2015-07-05 14:50:00,
2015-07-05 10:55:00,75.0,57.2,-100.00,ESE,112,6.0,6.0,-999,0.00,,---,0.00,VWS V14.01,2015-07-05 14:55:00,
2015-07-05 11:00:00,74.0,61.9,-100.00,SE,135,3.0,9.0,-999,0.00,,---,0.00,VWS V14.01,2015-07-05 15:00:00,
2015-07-05 11:05:00,75.0,62.5,-100.00,ESE,112,0.0,4.0,-999,0.00,,---,0.00,VWS V14.01,2015-07-05 15:05:00,
2015-07-05 11:10:00,76.0,63.8,-100.00,NNW,337,0.0,5.0,-999,0.00,,---,0.00,VWS V14.01,2015-07-05 15:10:00,
2015-07-05 11:15:00,77.0,66.1,-100.00,ESE,112,0.0,6.0,-999,0.00,,---,0.00,VWS V14.01,2015-07-05 15:15:00,
2015-07-05 11:20:00,78.0,67.0,-100.00,WSW,247,0.0,2.0,-999,0.00,,---,0.00,VWS V14.01,2015-07-05 15:20:00,
2015-07-05 11:25:00,79.0,68.0,-100.00,NNE,22,0.0,3.0,-999,0.00,,---,0.00,VWS V14.01,2015-07-05 15:25:00,
2015-07-05 11:30:00,79.0,68.4,-100.00,SSE,157,0.0,4.0,-999,0.00,,---,0.00,VWS V14.01,2015-07-05 15:30:00,
2015-07-05 11:35:00,79.0,68.0,-100.00,SE,135,0.0,5.0,-999,0.00,,---,0.00,VWS V14.01,2015-07-05 15:35:00,
2015-07-05 11:40:00,78.0,67.4,-100.00,ESE,112,0.0,4.0,-999,0.00,,---,0.00,VWS V14.01,2015-07-05 15:40:00,
2015-07-05 11:45:00,77.0,66.1,-100.00,ESE,112,0.0,6.0,-999,0.00,,---,0.00,VWS V14.01,2015-07-05 15:45:00,
2015-07-05 11:50:00,76.0,65.9,-100.00,ESE,112,3.0,7.0,-999,0.00,,---,0.00,VWS V14.01,2015-07-05 15:50:00,
2015-07-05 11:55:00,74.0,64.8,-100.00,ESE,112,4.0,9.0,-999,0.00,,---,0.00,VWS V14.01,2015-07-05 15:55:00,
2015-07-05 12:00:00,73.0,64.6,-100.00,ESE,112,3.0,6.0,-999,0.00,,---,0.00,VWS V14.01,2015-07-05 16:00:00,
2015-07-05 12:05:00,73.0,64.6,-100.00,ESE,112,3.0,6.0,-999,0.00,,---,0.00,VWS V14.01,2015-07-05 16:05:00,
2015-07-05 12:10:00,73.0,64.2,-100.00,NE,45,0.0,6.0,-999,0.00,,---,0.00,VWS V14.01,2015-07-05 16:10:00,
2015-07-05 12:15:00,73.0,64.2,-100.00,North,360,0.0,2.0,-999,0.00,,---,0.00,VWS V14.01,2015-07-05 16:15:00,
2015-07-05 12:20:00,73.0,64.2,-100.00,NNW,337,0.0,4.0,-999,0.00,,---,0.00,VWS V14.01,2015-07-05 16:20:00,
2015-07-05 12:25:00,74.0,64.8,-100.00,SSE,157,0.0,1.0,-999,0.00,,---,0.00,VWS V14.01,2015-07-05 16:25:00,
2015-07-05 12:30:00,74.0,64.8,-100.00,SSE,157,0.0,0.0,-999,0.00,,---,0.00,VWS V14.01,2015-07-05 16:30:00,
2015-07-05 12:35:00,74.0,64.8,-100.00,ESE,112,0.0,4.0,-999,0.00,,---,0.00,VWS V14.01,2015-07-05 16:35:00,
2015-07-05 12:40:00,74.0,65.6,-100.00,ESE,112,0.0,6.0,-999,0.00,,---,0.00,VWS V14.01,2015-07-05 16:40:00,
2015-07-05 12:45:00,74.0,65.6,-100.00,SE,135,0.0,3.0,-999,0.00,,---,0.00,VWS V14.01,2015-07-05 16:45:00,
2015-07-05 12:50:00,74.0,65.6,-100.00,ESE,112,0.0,5.0,-999,0.00,,---,0.00,VWS V14.01,2015-07-05 16:50:00,
2015-07-05 12:55:00,74.0,65.6,-100.00,SSE,157,0.0,5.0,-999,0.00,,---,0.00,VWS V14.01,2015-07-05 16:55:00,
2015-07-05 13:00:00,74.0,66.0,-100.00,East,90,0.0,3.0,-999,0.00,,---,0.00,VWS V14.01,2015-07-05 17:00:00,
2015-07-05 13:05:00,75.0,66.9,-100.00,SSE,157,0.0,4.0,-999,0.00,,---,0.00,VWS V14.01,2015-07-05 17:05:00,
2015-07-05 13:10:00,75.0,66.6,-100.00,ENE,67,0.0,0.0,-999,0.00,,---,0.00,VWS V14.01,2015-07-05 17:10:00,
2015-07-05 13:15:00,75.0,66.2,-100.00,ESE,112,5.0,7.0,-999,0.00,,---,0.00,VWS V14.01,2015-07-05 17:15:00,
2015-07-05 13:20:00,75.0,66.6,-100.00,SE,135,0.0,6.0,-999,0.00,,---,0.00,VWS V14.01,2015-07-05 17:20:00,
2015-07-05 13:25:00,76.0,68.3,-100.00,NNE,22,4.0,4.0,-999,0.00,,---,0.00,VWS V14.01,2015-07-05 17:25:00,
2015-07-05 13:29:00,79.0,65.8,-100.00,SE,135,0.0,5.0,-999,0.00,,---,0.00,VWS V14.01,2015-07-05 17:29:00,
2015-07-05 13:30:00,76.0,67.5,-100.00,North,360,4.0,8.0,-999,0.00,,---,0.00,VWS V14.01,2015-07-05 17:30:00,
2015-07-05 13:31:00,79.0,64.9,-100.00,ESE,112,5.0,6.0,-999,0.00,,---,0.00,VWS V14.01,2015-07-05 17:31:00,
2015-07-05 13:34:00,80.0,68.5,-100.00,North,360,2.0,6.0,-999,0.00,,---,0.00,VWS V14.01,2015-07-05 17:34:00,
2015-07-05 13:35:00,77.0,69.2,-100.00,NW,315,0.0,4.0,-999,0.00,,---,0.00,VWS V14.01,2015-07-05 17:35:00,
2015-07-05 13:37:00,80.0,68.1,-100.00,NNW,337,0.0,3.0,-999,0.00,,---,0.00,VWS V14.01,2015-07-05 17:37:00,
2015-07-05 13:38:00,81.0,69.9,-100.00,NNW,337,2.0,3.0,-999,0.00,,---,0.00,VWS V14.01,2015-07-05 17:38:00,
2015-07-05 13:39:00,81.0,69.0,-100.00,North,360,0.0,3.0,-999,0.00,,---,0.00,VWS V14.01,2015-07-05 17:39:00,
2015-07-05 13:40:00,78.0,69.1,-100.00,SE,135,0.0,6.0,-999,0.00,,---,0.00,VWS V14.01,2015-07-05 17:40:00,
2015-07-05 13:42:00,82.0,67.2,-100.00,NNW,337,7.0,9.0,-999,0.00,,---,0.00,VWS V14.01,2015-07-05 17:42:00,
2015-07-05 13:43:00,81.0,65.3,-100.00,North,360,6.0,9.0,-999,0.00,,---,0.00,VWS V14.01,2015-07-05 17:43:00,
2015-07-05 13:45:00,78.0,66.2,-100.00,ESE,112,0.0,3.0,-999,0.00,,---,0.00,VWS V14.01,2015-07-05 17:45:00,
2015-07-05 13:46:00,80.0,64.4,-100.00,North,360,3.0,8.0,-999,0.00,,---,0.00,VWS V14.01,2015-07-05 17:46:00,
2015-07-05 13:47:00,80.0,65.4,-100.00,North,360,0.0,8.0,-999,0.00,,---,0.00,VWS V14.01,2015-07-05 17:47:00,
2015-07-05 13:49:00,81.0,66.3,-100.00,North,360,8.0,8.0,-999,0.00,,---,0.00,VWS V14.01,2015-07-05 17:49:00,
2015-07-05 13:50:00,78.0,67.4,-100.00,ESE,112,0.0,4.0,-999,0.00,,---,0.00,VWS V14.01,2015-07-05 17:50:00,
2015-07-05 13:53:00,80.0,66.7,-100.00,NNE,22,8.0,8.0,-999,0.00,,---,0.00,VWS V14.01,2015-07-05 17:53:00,
2015-07-05 13:54:00,80.0,66.7,-100.00,North,360,7.0,8.0,-999,0.00,,---,0.00,VWS V14.01,2015-07-05 17:54:00,
2015-07-05 13:55:00,78.0,67.8,-100.00,ESE,112,0.0,4.0,-999,0.00,,---,0.00,VWS V14.01,2015-07-05 17:55:00,
2015-07-05 13:56:00,80.0,63.9,-100.00,North,360,5.0,7.0,-999,0.00,,---,0.00,VWS V14.01,2015-07-05 17:56:00,
2015-07-05 13:58:00,80.0,64.4,-100.00,NNW,337,3.0,7.0,-999,0.00,,---,0.00,VWS V14.01,2015-07-05 17:58:00,
2015-07-05 13:59:00,80.0,65.8,-100.00,NNW,337,0.0,7.0,-999,0.00,,---,0.00,VWS V14.01,2015-07-05 17:59:00,
2015-07-05 14:00:00,78.0,66.2,-100.00,ENE,67,0.0,5.0,-999,0.00,,---,0.00,VWS V14.01,2015-07-05 18:00:00,
2015-07-05 14:01:00,80.0,66.3,-100.00,NNW,337,0.0,0.0,-999,0.00,,---,0.00,VWS V14.01,2015-07-05 18:01:00,
2015-07-05 14:05:00,78.0,64.4,-100.00,North,360,0.0,5.0,-999,0.00,,---,0.00,VWS V14.01,2015-07-05 18:05:00,
2015-07-05 14:10:00,78.0,64.8,-100.00,North,360,4.0,5.0,-999,0.00,,---,0.00,VWS V14.01,2015-07-05 18:10:00,
2015-07-05 14:15:00,78.0,68.2,-100.00,ESE,112,0.0,6.0,-999,0.00,,---,0.00,VWS V14.01,2015-07-05 18:15:00,
2015-07-05 14:20:00,78.0,67.8,-100.00,North,360,0.0,5.0,-999,0.00,,---,0.00,VWS V14.01,2015-07-05 18:20:00,
2015-07-05 14:25:00,79.0,67.1,-100.00,SSE,157,0.0,5.0,-999,0.00,,---,0.00,VWS V14.01,2015-07-05 18:25:00,
2015-07-05 14:30:00,80.0,68.5,-100.00,North,360,1.0,6.0,-999,0.00,,---,0.00,VWS V14.01,2015-07-05 18:30:00,
2015-07-05 14:35:00,81.0,69.0,-100.00,North,360,0.0,3.0,-999,0.00,,---,0.00,VWS V14.01,2015-07-05 18:35:00,
2015-07-05 14:45:00,80.0,64.4,-100.00,NNE,22,2.0,2.0,-999,0.00,,---,0.00,VWS V14.01,2015-07-05 18:45:00,
2015-07-05 14:51:00,80.0,65.8,-100.00,North,360,7.0,7.0,-999,0.00,,---,0.00,VWS V14.01,2015-07-05 18:51:00,
2015-07-05 14:56:00,79.0,64.9,-100.00,NNW,337,0.0,0.0,-999,0.00,,---,0.00,VWS V14.01,2015-07-05 18:56:00,
2015-07-05 15:01:00,80.0,65.8,-100.00,ESE,112,0.0,4.0,-999,0.00,,---,0.00,VWS V14.01,2015-07-05 19:01:00,
2015-07-05 15:06:00,80.0,67.6,-100.00,North,360,4.0,4.0,-999,0.00,,---,0.00,VWS V14.01,2015-07-05 19:06:00,
2015-07-05 15:12:00,80.0,68.9,-100.00,South,180,0.0,1.0,-999,0.00,,---,0.00,VWS V14.01,2015-07-05 19:12:00,
2015-07-05 15:17:00,80.0,67.6,-100.00,NW,315,0.0,2.0,-999,0.00,,---,0.00,VWS V14.01,2015-07-05 19:17:00,
2015-07-05 15:22:00,79.0,65.3,-100.00,East,90,3.0,4.0,-999,0.00,,---,0.00,VWS V14.01,2015-07-05 19:22:00,
2015-07-05 15:27:00,79.0,64.9,-100.00,ENE,67,5.0,5.0,-999,0.00,,---,0.00,VWS V14.01,2015-07-05 19:27:00,
2015-07-05 15:32:00,78.0,66.2,-100.00,ESE,112,0.0,7.0,-999,0.00,,---,0.00,VWS V14.01,2015-07-05 19:32:00,
2015-07-05 15:38:00,78.0,66.2,-100.00,ENE,67,2.0,3.0,-999,0.00,,---,0.00,VWS V14.01,2015-07-05 19:38:00,
2015-07-05 15:43:00,78.0,65.7,-100.00,SSE,157,0.0,6.0,-999,0.00,,---,0.00,VWS V14.01,2015-07-05 19:43:00,
2015-07-05 15:48:00,78.0,68.2,-100.00,ESE,112,0.0,4.0,-999,0.00,,---,0.00,VWS V14.01,2015-07-05 19:48:00,
2015-07-05 15:53:00,78.0,66.2,-100.00,East,90,0.0,4.0,-999,0.00,,---,0.00,VWS V14.01,2015-07-05 19:53:00,
2015-07-05 15:58:00,79.0,66.2,-100.00,ESE,112,0.0,1.0,-999,0.00,,---,0.00,VWS V14.01,2015-07-05 19:58:00,
2015-07-05 16:03:00,78.0,63.5,-100.00,East,90,2.0,6.0,-999,0.00,,---,0.00,VWS V14.01,2015-07-05 20:03:00,
2015-07-05 16:08:00,77.0,65.2,-100.00,East,90,3.0,5.0,-999,0.00,,---,0.00,VWS V14.01,2015-07-05 20:08:00,
2015-07-05 16:14:00,77.0,66.5,-100.00,ESE,112,0.0,3.0,-999,0.00,,---,0.00,VWS V14.01,2015-07-05 20:14:00,
2015-07-05 16:19:00,76.0,65.9,-100.00,ESE,112,3.0,6.0,-999,0.00,,---,0.00,VWS V14.01,2015-07-05 20:19:00,
2015-07-05 16:24:00,76.0,67.1,-100.00,East,90,0.0,5.0,-999,0.00,,---,0.00,VWS V14.01,2015-07-05 20:24:00,
2015-07-05 16:34:00,75.0,66.6,-100.00,ESE,112,1.0,5.0,-999,0.00,,---,0.00,VWS V14.01,2015-07-05 20:34:00,
2015-07-05 16:39:00,75.0,66.2,-100.00,ESE,112,2.0,5.0,-999,0.00,,---,0.00,VWS V14.01,2015-07-05 20:39:00,
2015-07-05 16:44:00,75.0,66.2,-100.00,ESE,112,3.0,5.0,-999,0.00,,---,0.00,VWS V14.01,2015-07-05 20:44:00,
2015-07-05 16:49:00,76.0,68.7,-100.00,ESE,112,0.0,3.0,-999,0.00,,---,0.00,VWS V14.01,2015-07-05 20:49:00,
2015-07-05 16:54:00,77.0,68.1,-100.00,ESE,112,0.0,3.0,-999,0.00,,---,0.00,VWS V14.01,2015-07-05 20:54:00,
2015-07-05 16:59:00,77.0,68.9,-100.00,ESE,112,0.0,0.0,-999,0.00,,---,0.00,VWS V14.01,2015-07-05 20:59:00,
2015-07-05 17:05:00,78.0,67.8,-100.00,SSE,157,0.0,5.0,-999,0.00,,---,0.00,VWS V14.01,2015-07-05 21:05:00,
2015-07-05 17:10:00,78.0,70.2,-100.00,SSE,157,0.0,0.0,-999,0.00,,---,0.00,VWS V14.01,2015-07-05 21:10:00,
2015-07-05 17:15:00,78.0,69.4,-100.00,SSE,157,0.0,0.0,-999,0.00,,---,0.00,VWS V14.01,2015-07-05 21:15:00,
2015-07-05 17:20:00,79.0,68.8,-100.00,SSE,157,0.0,0.0,-999,0.00,,---,0.00,VWS V14.01,2015-07-05 21:20:00,
2015-07-05 17:25:00,79.0,69.6,-100.00,SSE,157,0.0,0.0,-999,0.00,,---,0.00,VWS V14.01,2015-07-05 21:25:00,
2015-07-05 17:30:00,79.0,68.8,-100.00,ESE,112,0.0,3.0,-999,0.00,,---,0.00,VWS V14.01,2015-07-05 21:30:00,
2015-07-05 17:35:00,78.0,66.2,-100.00,ESE,112,0.0,4.0,-999,0.00,,---,0.00,VWS V14.01,2015-07-05 21:35:00,
2015-07-05 17:40:00,77.0,68.5,-100.00,ESE,112,0.0,3.0,-999,0.00,,---,0.00,VWS V14.01,2015-07-05 21:40:00,
2015-07-05 17:45:00,77.0,68.9,-100.00,ESE,112,0.0,2.0,-999,0.00,,---,0.00,VWS V14.01,2015-07-05 21:45:00,
2015-07-05 17:50:00,77.0,70.4,-100.00,ESE,112,0.0,1.0,-999,0.00,,---,0.00,VWS V14.01,2015-07-05 21:50:00,
2015-07-05 17:55:00,77.0,70.0,-100.00,ESE,112,3.0,3.0,-999,0.00,,---,0.00,VWS V14.01,2015-07-05 21:55:00,
2015-07-05 18:00:00,77.0,70.7,-100.00,ESE,112,0.0,3.0,-999,0.00,,---,0.00,VWS V14.01,2015-07-05 22:00:00,
2015-07-05 18:05:00,77.0,68.1,-100.00,SE,135,0.0,5.0,-999,0.00,,---,0.00,VWS V14.01,2015-07-05 22:05:00,
2015-07-05 18:10:00,76.0,69.8,-100.00,East,90,0.0,4.0,-999,0.00,,---,0.00,VWS V14.01,2015-07-05 22:10:00,
2015-07-05 18:15:00,76.0,67.5,-100.00,SE,135,3.0,6.0,-999,0.00,,---,0.00,VWS V14.01,2015-07-05 22:15:00,
2015-07-05 18:20:00,76.0,67.9,-100.00,ESE,112,0.0,5.0,-999,0.00,,---,0.00,VWS V14.01,2015-07-05 22:20:00,
2015-07-05 18:25:00,75.0,68.1,-100.00,ESE,112,0.0,1.0,-999,0.00,,---,0.00,VWS V14.01,2015-07-05 22:25:00,
2015-07-05 18:30:00,75.0,68.4,-100.00,ESE,112,0.0,0.0,-999,0.00,,---,0.00,VWS V14.01,2015-07-05 22:30:00,
2015-07-05 18:35:00,75.0,68.4,-100.00,ESE,112,0.0,0.0,-999,0.00,,---,0.00,VWS V14.01,2015-07-05 22:35:00,
2015-07-05 18:40:00,75.0,68.4,-100.00,ESE,112,0.0,0.0,-999,0.00,,---,0.00,VWS V14.01,2015-07-05 22:40:00,
2015-07-05 18:45:00,75.0,68.8,-100.00,ESE,112,0.0,0.0,-999,0.00,,---,0.00,VWS V14.01,2015-07-05 22:45:00,
2015-07-05 18:50:00,74.0,67.8,-100.00,ESE,112,0.0,0.0,-999,0.00,,---,0.00,VWS V14.01,2015-07-05 22:50:00,
2015-07-05 18:55:00,74.0,67.4,-100.00,ESE,112,0.0,0.0,-999,0.00,,---,0.00,VWS V14.01,2015-07-05 22:55:00,
2015-07-05 19:00:00,74.0,67.4,-100.00,ESE,112,0.0,0.0,-999,0.00,,---,0.00,VWS V14.01,2015-07-05 23:00:00,
2015-07-05 19:05:00,73.0,66.5,-100.00,ESE,112,0.0,0.0,-999,0.00,,---,0.00,VWS V14.01,2015-07-05 23:05:00,
2015-07-05 19:10:00,73.0,66.1,-100.00,ESE,112,0.0,0.0,-999,0.00,,---,0.00,VWS V14.01,2015-07-05 23:10:00,
2015-07-05 19:15:00,73.0,65.7,-100.00,ESE,112,0.0,0.0,-999,0.00,,---,0.00,VWS V14.01,2015-07-05 23:15:00,
2015-07-05 19:20:00,72.0,64.8,-100.00,ESE,112,0.0,0.0,-999,0.00,,---,0.00,VWS V14.01,2015-07-05 23:20:00,
2015-07-05 19:26:00,72.0,64.4,-100.00,ESE,112,0.0,0.0,-999,0.00,,---,0.00,VWS V14.01,2015-07-05 23:26:00,
2015-07-05 19:31:00,72.0,64.0,-100.00,ESE,112,0.0,0.0,-999,0.00,,---,0.00,VWS V14.01,2015-07-05 23:31:00,
2015-07-05 19:36:00,72.0,63.7,-100.00,ESE,112,0.0,0.0,-999,0.00,,---,0.00,VWS V14.01,2015-07-05 23:36:00,
2015-07-05 19:41:00,71.0,59.1,-100.00,ESE,112,0.0,0.0,-999,0.00,,---,0.00,VWS V14.01,2015-07-05 23:41:00,
2015-07-05 19:46:00,71.0,56.0,-100.00,ESE,112,0.0,0.0,-999,0.00,,---,0.00,VWS V14.01,2015-07-05 23:46:00,
2015-07-05 19:51:00,71.0,51.5,-100.00,ESE,112,0.0,0.0,-999,0.00,,---,0.00,VWS V14.01,2015-07-05 23:51:00,
2015-07-05 19:56:00,71.0,43.4,-100.00,ESE,112,0.0,0.0,-999,0.00,,---,0.00,VWS V14.01,2015-07-05 23:56:00,
2015-07-05 20:01:00,70.0,27.1,-100.00,ESE,112,0.0,0.0,-999,0.00,,---,0.00,VWS V14.01,2015-07-06 00:01:00,
2015-07-05 20:06:00,70.0,-0.2,-100.00,ESE,112,0.0,0.0,-999,0.00,,---,0.00,VWS V14.01,2015-07-06 00:06:00,
2015-07-05 20:11:00,70.0,0.0,-100.00,ESE,112,0.0,0.0,-999,0.00,,---,0.00,VWS V14.01,2015-07-06 00:11:00,
2015-07-05 20:16:00,70.0,0.0,-100.00,ESE,112,0.0,0.0,-999,0.00,,---,0.00,VWS V14.01,2015-07-06 00:16:00,
2015-07-05 20:21:00,70.0,0.0,-100.00,ESE,112,0.0,0.0,-999,0.00,,---,0.00,VWS V14.01,2015-07-06 00:21:00,